sensor_id;sensor_type;location;lat;lon;timestamp;temperature;humidity
9323;DHT22;4700;48.822;9.270;2023-07-13T00:02:40;20.40;1.00
9323;DHT22;4700;48.822;9.270;2023-07-13T00:05:26;20.30;1.00
9323;DHT22;4700;48.822;9.270;2023-07-13T00:08:11;20.20;1.00
9323;DHT22;4700;48.822;9.270;2023-07-13T00:10:57;20.20;1.00
9323;DHT22;4700;48.822;9.270;2023-07-13T00:13:43;20.20;1.00
9323;DHT22;4700;48.822;9.270;2023-07-13T00:16:31;22.60;1.00
9323;DHT22;4700;48.822;9.270;2023-07-13T00:19:17;20.10;1.00
9323;DHT22;4700;48.822;9.270;2023-07-13T00:22:03;20.00;1.00
9323;DHT22;4700;48.822;9.270;2023-07-13T00:24:49;19.90;1.00
9323;DHT22;4700;48.822;9.270;2023-07-13T00:27:36;19.80;1.00
9323;DHT22;4700;48.822;9.270;2023-07-13T00:30:22;19.80;1.00
9323;DHT22;4700;48.822;9.270;2023-07-13T00:33:09;19.70;1.00
9323;DHT22;4700;48.822;9.270;2023-07-13T00:35:56;19.80;1.00
9323;DHT22;4700;48.822;9.270;2023-07-13T00:38:42;19.70;1.00
9323;DHT22;4700;48.822;9.270;2023-07-13T00:41:27;19.60;1.00
9323;DHT22;4700;48.822;9.270;2023-07-13T00:44:14;19.60;1.00
9323;DHT22;4700;48.822;9.270;2023-07-13T00:46:59;19.50;1.00
9323;DHT22;4700;48.822;9.270;2023-07-13T00:49:46;19.40;1.00
9323;DHT22;4700;48.822;9.270;2023-07-13T00:52:33;19.30;1.00
9323;DHT22;4700;48.822;9.270;2023-07-13T00:55:22;19.30;1.00
9323;DHT22;4700;48.822;9.270;2023-07-13T00:58:08;19.30;1.00
9323;DHT22;4700;48.822;9.270;2023-07-13T01:00:54;19.30;1.00
9323;DHT22;4700;48.822;9.270;2023-07-13T01:03:40;19.20;1.00
9323;DHT22;4700;48.822;9.270;2023-07-13T01:06:28;19.10;1.00
9323;DHT22;4700;48.822;9.270;2023-07-13T01:09:15;19.10;1.00
9323;DHT22;4700;48.822;9.270;2023-07-13T01:12:02;19.00;1.00
9323;DHT22;4700;48.822;9.270;2023-07-13T01:14:48;19.00;1.00
9323;DHT22;4700;48.822;9.270;2023-07-13T01:17:34;18.90;1.00
9323;DHT22;4700;48.822;9.270;2023-07-13T01:20:20;18.90;1.00
9323;DHT22;4700;48.822;9.270;2023-07-13T01:23:09;18.90;1.00
9323;DHT22;4700;48.822;9.270;2023-07-13T01:25:55;18.80;1.00
9323;DHT22;4700;48.822;9.270;2023-07-13T01:28:41;18.80;1.00
9323;DHT22;4700;48.822;9.270;2023-07-13T01:31:27;18.70;1.00
9323;DHT22;4700;48.822;9.270;2023-07-13T01:34:12;18.70;1.00
9323;DHT22;4700;48.822;9.270;2023-07-13T01:36:58;18.70;1.00
9323;DHT22;4700;48.822;9.270;2023-07-13T01:39:46;18.70;1.00
9323;DHT22;4700;48.822;9.270;2023-07-13T01:42:32;18.70;1.00
9323;DHT22;4700;48.822;9.270;2023-07-13T01:45:18;18.60;1.00
9323;DHT22;4700;48.822;9.270;2023-07-13T01:48:05;18.60;1.00
9323;DHT22;4700;48.822;9.270;2023-07-13T01:50:52;18.60;1.00
9323;DHT22;4700;48.822;9.270;2023-07-13T01:53:37;18.60;1.00
9323;DHT22;4700;48.822;9.270;2023-07-13T01:56:24;18.50;1.00
9323;DHT22;4700;48.822;9.270;2023-07-13T01:59:10;18.40;1.00
9323;DHT22;4700;48.822;9.270;2023-07-13T02:01:56;18.40;1.00
9323;DHT22;4700;48.822;9.270;2023-07-13T02:04:42;18.40;1.00
9323;DHT22;4700;48.822;9.270;2023-07-13T02:07:28;18.30;1.00
9323;DHT22;4700;48.822;9.270;2023-07-13T02:10:13;18.30;1.00
9323;DHT22;4700;48.822;9.270;2023-07-13T02:13:00;18.20;1.00
9323;DHT22;4700;48.822;9.270;2023-07-13T02:15:46;18.20;1.00
9323;DHT22;4700;48.822;9.270;2023-07-13T02:18:34;18.20;1.00
9323;DHT22;4700;48.822;9.270;2023-07-13T02:21:20;18.20;1.00
9323;DHT22;4700;48.822;9.270;2023-07-13T02:24:06;18.20;1.00
9323;DHT22;4700;48.822;9.270;2023-07-13T02:26:55;18.10;1.00
9323;DHT22;4700;48.822;9.270;2023-07-13T02:29:42;18.10;1.00
9323;DHT22;4700;48.822;9.270;2023-07-13T02:32:28;18.00;1.00
9323;DHT22;4700;48.822;9.270;2023-07-13T02:35:14;18.00;1.00
9323;DHT22;4700;48.822;9.270;2023-07-13T02:38:00;18.00;1.00
9323;DHT22;4700;48.822;9.270;2023-07-13T02:40:46;17.90;1.00
9323;DHT22;4700;48.822;9.270;2023-07-13T02:43:33;17.90;1.00
9323;DHT22;4700;48.822;9.270;2023-07-13T02:46:19;17.80;1.00
9323;DHT22;4700;48.822;9.270;2023-07-13T02:49:06;17.80;1.00
9323;DHT22;4700;48.822;9.270;2023-07-13T02:51:52;17.70;1.00
9323;DHT22;4700;48.822;9.270;2023-07-13T02:54:38;17.70;1.00
9323;DHT22;4700;48.822;9.270;2023-07-13T02:57:23;17.60;1.00
9323;DHT22;4700;48.822;9.270;2023-07-13T03:00:10;17.50;1.00
9323;DHT22;4700;48.822;9.270;2023-07-13T03:02:58;17.40;1.00
9323;DHT22;4700;48.822;9.270;2023-07-13T03:05:45;17.40;1.00
9323;DHT22;4700;48.822;9.270;2023-07-13T03:08:34;17.30;1.00
9323;DHT22;4700;48.822;9.270;2023-07-13T03:11:20;17.30;1.00
9323;DHT22;4700;48.822;9.270;2023-07-13T03:14:07;17.30;1.00
9323;DHT22;4700;48.822;9.270;2023-07-13T03:16:53;17.30;1.00
9323;DHT22;4700;48.822;9.270;2023-07-13T03:19:40;17.30;1.00
9323;DHT22;4700;48.822;9.270;2023-07-13T03:22:26;17.30;1.00
9323;DHT22;4700;48.822;9.270;2023-07-13T03:25:11;17.30;1.00
9323;DHT22;4700;48.822;9.270;2023-07-13T03:27:57;17.40;1.00
9323;DHT22;4700;48.822;9.270;2023-07-13T03:30:43;17.50;1.00
9323;DHT22;4700;48.822;9.270;2023-07-13T03:33:28;17.60;1.00
9323;DHT22;4700;48.822;9.270;2023-07-13T03:36:18;17.80;1.00
9323;DHT22;4700;48.822;9.270;2023-07-13T03:39:05;17.90;1.00
9323;DHT22;4700;48.822;9.270;2023-07-13T03:41:52;18.00;1.00
9323;DHT22;4700;48.822;9.270;2023-07-13T03:44:39;18.10;1.00
9323;DHT22;4700;48.822;9.270;2023-07-13T03:47:25;18.10;1.00
9323;DHT22;4700;48.822;9.270;2023-07-13T03:50:11;18.10;1.00
9323;DHT22;4700;48.822;9.270;2023-07-13T03:52:59;18.30;1.00
9323;DHT22;4700;48.822;9.270;2023-07-13T03:55:45;18.50;1.00
9323;DHT22;4700;48.822;9.270;2023-07-13T03:58:32;18.60;1.00
9323;DHT22;4700;48.822;9.270;2023-07-13T04:01:19;18.60;1.00
9323;DHT22;4700;48.822;9.270;2023-07-13T04:04:05;18.70;1.00
9323;DHT22;4700;48.822;9.270;2023-07-13T04:06:51;18.70;1.00
9323;DHT22;4700;48.822;9.270;2023-07-13T04:09:38;18.80;1.00
9323;DHT22;4700;48.822;9.270;2023-07-13T04:12:24;18.90;1.00
9323;DHT22;4700;48.822;9.270;2023-07-13T04:15:10;18.80;1.00
9323;DHT22;4700;48.822;9.270;2023-07-13T04:17:55;18.90;1.00
9323;DHT22;4700;48.822;9.270;2023-07-13T04:20:41;18.90;1.00
9323;DHT22;4700;48.822;9.270;2023-07-13T04:23:27;18.90;1.00
9323;DHT22;4700;48.822;9.270;2023-07-13T04:26:14;19.00;1.00
9323;DHT22;4700;48.822;9.270;2023-07-13T04:28:59;19.00;1.00
9323;DHT22;4700;48.822;9.270;2023-07-13T04:31:47;19.00;1.00
9323;DHT22;4700;48.822;9.270;2023-07-13T04:34:32;19.10;1.00
9323;DHT22;4700;48.822;9.270;2023-07-13T04:37:20;19.20;1.00
9323;DHT22;4700;48.822;9.270;2023-07-13T04:40:07;19.30;1.00
9323;DHT22;4700;48.822;9.270;2023-07-13T04:42:57;19.40;1.00
9323;DHT22;4700;48.822;9.270;2023-07-13T04:45:43;19.40;1.00
9323;DHT22;4700;48.822;9.270;2023-07-13T04:48:30;19.40;1.00
9323;DHT22;4700;48.822;9.270;2023-07-13T04:51:16;19.40;1.00
9323;DHT22;4700;48.822;9.270;2023-07-13T04:54:02;19.40;1.00
9323;DHT22;4700;48.822;9.270;2023-07-13T04:56:49;19.40;1.00
9323;DHT22;4700;48.822;9.270;2023-07-13T04:59:36;19.40;1.00
9323;DHT22;4700;48.822;9.270;2023-07-13T05:02:22;19.30;1.00
9323;DHT22;4700;48.822;9.270;2023-07-13T05:05:08;19.40;1.00
9323;DHT22;4700;48.822;9.270;2023-07-13T05:07:54;19.50;1.00
9323;DHT22;4700;48.822;9.270;2023-07-13T05:10:39;19.60;1.00
9323;DHT22;4700;48.822;9.270;2023-07-13T05:13:25;19.70;1.00
9323;DHT22;4700;48.822;9.270;2023-07-13T05:18:58;20.00;1.00
9323;DHT22;4700;48.822;9.270;2023-07-13T05:21:44;20.20;1.00
9323;DHT22;4700;48.822;9.270;2023-07-13T05:24:29;20.60;1.00
9323;DHT22;4700;48.822;9.270;2023-07-13T05:27:17;20.80;1.00
9323;DHT22;4700;48.822;9.270;2023-07-13T05:30:04;21.20;1.00
9323;DHT22;4700;48.822;9.270;2023-07-13T05:35:37;21.50;1.00
9323;DHT22;4700;48.822;9.270;2023-07-13T05:38:23;21.40;1.00
9323;DHT22;4700;48.822;9.270;2023-07-13T05:41:09;21.30;1.00
9323;DHT22;4700;48.822;9.270;2023-07-13T05:43:55;21.40;1.00
9323;DHT22;4700;48.822;9.270;2023-07-13T05:46:41;21.40;1.00
9323;DHT22;4700;48.822;9.270;2023-07-13T05:49:29;21.40;1.00
9323;DHT22;4700;48.822;9.270;2023-07-13T05:52:15;21.40;1.00
9323;DHT22;4700;48.822;9.270;2023-07-13T05:55:04;21.40;1.00
9323;DHT22;4700;48.822;9.270;2023-07-13T05:57:53;21.40;1.00
9323;DHT22;4700;48.822;9.270;2023-07-13T06:00:38;21.40;1.00
9323;DHT22;4700;48.822;9.270;2023-07-13T06:03:24;20.80;1.00
9323;DHT22;4700;48.822;9.270;2023-07-13T06:06:12;21.30;1.00
9323;DHT22;4700;48.822;9.270;2023-07-13T06:08:58;21.20;1.00
9323;DHT22;4700;48.822;9.270;2023-07-13T06:11:43;21.20;1.00
9323;DHT22;4700;48.822;9.270;2023-07-13T06:14:30;21.20;1.00
9323;DHT22;4700;48.822;9.270;2023-07-13T06:17:18;21.40;1.00
9323;DHT22;4700;48.822;9.270;2023-07-13T06:20:05;21.70;1.00
9323;DHT22;4700;48.822;9.270;2023-07-13T06:22:53;21.90;1.00
9323;DHT22;4700;48.822;9.270;2023-07-13T06:25:41;22.70;1.00
9323;DHT22;4700;48.822;9.270;2023-07-13T06:28:29;24.50;1.00
9323;DHT22;4700;48.822;9.270;2023-07-13T06:31:16;27.40;1.00
9323;DHT22;4700;48.822;9.270;2023-07-13T06:34:04;28.90;99.90
9323;DHT22;4700;48.822;9.270;2023-07-13T06:36:50;28.60;99.90
9323;DHT22;4700;48.822;9.270;2023-07-13T06:39:37;27.70;1.00
9323;DHT22;4700;48.822;9.270;2023-07-13T06:45:11;27.00;99.90
9323;DHT22;4700;48.822;9.270;2023-07-13T06:47:57;26.80;99.90
9323;DHT22;4700;48.822;9.270;2023-07-13T06:50:43;27.30;99.90
9323;DHT22;4700;48.822;9.270;2023-07-13T06:53:29;29.20;99.90
9323;DHT22;4700;48.822;9.270;2023-07-13T06:56:16;29.90;99.90
9323;DHT22;4700;48.822;9.270;2023-07-13T06:59:01;31.70;99.90
9323;DHT22;4700;48.822;9.270;2023-07-13T07:01:47;34.10;99.90
9323;DHT22;4700;48.822;9.270;2023-07-13T07:04:33;37.30;99.90
9323;DHT22;4700;48.822;9.270;2023-07-13T07:07:19;36.80;99.90
9323;DHT22;4700;48.822;9.270;2023-07-13T07:10:06;35.20;99.90
9323;DHT22;4700;48.822;9.270;2023-07-13T07:12:56;32.70;99.90
9323;DHT22;4700;48.822;9.270;2023-07-13T07:15:42;32.60;99.90
9323;DHT22;4700;48.822;9.270;2023-07-13T07:18:28;31.80;99.90
9323;DHT22;4700;48.822;9.270;2023-07-13T07:21:14;31.90;99.90
9323;DHT22;4700;48.822;9.270;2023-07-13T07:24:00;32.20;99.90
9323;DHT22;4700;48.822;9.270;2023-07-13T07:26:50;34.60;99.90
9323;DHT22;4700;48.822;9.270;2023-07-13T07:29:37;36.60;99.90
9323;DHT22;4700;48.822;9.270;2023-07-13T07:32:24;37.00;99.90
9323;DHT22;4700;48.822;9.270;2023-07-13T07:35:10;36.50;99.90
9323;DHT22;4700;48.822;9.270;2023-07-13T07:37:56;37.20;99.90
9323;DHT22;4700;48.822;9.270;2023-07-13T07:40:42;37.70;99.90
9323;DHT22;4700;48.822;9.270;2023-07-13T07:43:28;38.30;99.90
9323;DHT22;4700;48.822;9.270;2023-07-13T07:46:16;38.60;99.90
9323;DHT22;4700;48.822;9.270;2023-07-13T07:49:02;38.90;99.90
9323;DHT22;4700;48.822;9.270;2023-07-13T07:51:47;38.60;99.90
9323;DHT22;4700;48.822;9.270;2023-07-13T07:54:36;38.70;99.90
9323;DHT22;4700;48.822;9.270;2023-07-13T07:57:22;38.50;99.90
9323;DHT22;4700;48.822;9.270;2023-07-13T08:00:12;37.80;99.90
9323;DHT22;4700;48.822;9.270;2023-07-13T08:02:59;37.80;99.90
9323;DHT22;4700;48.822;9.270;2023-07-13T08:05:45;37.90;99.90
9323;DHT22;4700;48.822;9.270;2023-07-13T08:08:34;38.40;99.90
9323;DHT22;4700;48.822;9.270;2023-07-13T08:11:21;39.80;99.90
9323;DHT22;4700;48.822;9.270;2023-07-13T08:14:08;40.40;99.90
9323;DHT22;4700;48.822;9.270;2023-07-13T08:16:55;39.70;99.90
9323;DHT22;4700;48.822;9.270;2023-07-13T08:19:47;38.10;99.90
9323;DHT22;4700;48.822;9.270;2023-07-13T08:22:33;38.10;99.90
9323;DHT22;4700;48.822;9.270;2023-07-13T08:25:20;37.40;99.90
9323;DHT22;4700;48.822;9.270;2023-07-13T08:28:12;38.50;99.90
9323;DHT22;4700;48.822;9.270;2023-07-13T08:31:03;38.90;99.90
9323;DHT22;4700;48.822;9.270;2023-07-13T08:33:49;39.20;99.90
9323;DHT22;4700;48.822;9.270;2023-07-13T08:36:37;40.70;99.90
9323;DHT22;4700;48.822;9.270;2023-07-13T08:39:22;39.90;99.90
9323;DHT22;4700;48.822;9.270;2023-07-13T08:42:15;38.70;99.90
9323;DHT22;4700;48.822;9.270;2023-07-13T08:45:00;38.50;99.90
9323;DHT22;4700;48.822;9.270;2023-07-13T08:47:53;36.60;99.90
9323;DHT22;4700;48.822;9.270;2023-07-13T08:50:48;36.90;99.90
9323;DHT22;4700;48.822;9.270;2023-07-13T08:53:44;37.40;99.90
9323;DHT22;4700;48.822;9.270;2023-07-13T08:56:32;38.80;99.90
9323;DHT22;4700;48.822;9.270;2023-07-13T08:59:22;40.10;99.90
9323;DHT22;4700;48.822;9.270;2023-07-13T09:02:26;39.70;99.90
9323;DHT22;4700;48.822;9.270;2023-07-13T09:05:14;39.30;99.90
9323;DHT22;4700;48.822;9.270;2023-07-13T09:08:16;39.50;99.90
9323;DHT22;4700;48.822;9.270;2023-07-13T09:11:18;39.20;99.90
9323;DHT22;4700;48.822;9.270;2023-07-13T09:14:21;39.50;99.90
9323;DHT22;4700;48.822;9.270;2023-07-13T09:17:17;38.80;99.90
9323;DHT22;4700;48.822;9.270;2023-07-13T09:20:10;40.30;99.90
9323;DHT22;4700;48.822;9.270;2023-07-13T09:23:01;40.00;99.90
9323;DHT22;4700;48.822;9.270;2023-07-13T09:25:54;39.80;99.90
9323;DHT22;4700;48.822;9.270;2023-07-13T09:28:45;38.40;99.90
9323;DHT22;4700;48.822;9.270;2023-07-13T09:31:34;38.30;99.90
9323;DHT22;4700;48.822;9.270;2023-07-13T09:34:24;36.70;99.90
9323;DHT22;4700;48.822;9.270;2023-07-13T09:37:10;37.40;99.90
9323;DHT22;4700;48.822;9.270;2023-07-13T09:39:58;38.20;99.90
9323;DHT22;4700;48.822;9.270;2023-07-13T09:42:45;36.70;99.90
9323;DHT22;4700;48.822;9.270;2023-07-13T09:45:36;36.60;99.90
9323;DHT22;4700;48.822;9.270;2023-07-13T09:48:26;33.30;99.90
9323;DHT22;4700;48.822;9.270;2023-07-13T09:51:19;32.90;99.90
9323;DHT22;4700;48.822;9.270;2023-07-13T09:54:05;33.40;99.90
9323;DHT22;4700;48.822;9.270;2023-07-13T09:56:54;35.00;99.90
9323;DHT22;4700;48.822;9.270;2023-07-13T09:59:44;37.30;99.90
9323;DHT22;4700;48.822;9.270;2023-07-13T10:05:22;37.40;99.90
9323;DHT22;4700;48.822;9.270;2023-07-13T10:08:17;36.20;99.90
9323;DHT22;4700;48.822;9.270;2023-07-13T10:11:10;36.10;99.90
9323;DHT22;4700;48.822;9.270;2023-07-13T10:13:58;35.60;99.90
9323;DHT22;4700;48.822;9.270;2023-07-13T10:16:48;35.60;99.90
9323;DHT22;4700;48.822;9.270;2023-07-13T10:19:37;35.80;99.90
9323;DHT22;4700;48.822;9.270;2023-07-13T10:22:29;33.30;99.90
9323;DHT22;4700;48.822;9.270;2023-07-13T10:25:21;33.50;99.90
9323;DHT22;4700;48.822;9.270;2023-07-13T10:28:16;33.90;99.90
9323;DHT22;4700;48.822;9.270;2023-07-13T10:31:12;34.30;99.90
9323;DHT22;4700;48.822;9.270;2023-07-13T10:33:58;34.40;99.90
9323;DHT22;4700;48.822;9.270;2023-07-13T10:36:47;34.60;99.90
9323;DHT22;4700;48.822;9.270;2023-07-13T10:39:33;34.60;99.90
9323;DHT22;4700;48.822;9.270;2023-07-13T10:42:30;34.90;99.90
9323;DHT22;4700;48.822;9.270;2023-07-13T10:45:16;34.00;99.90
9323;DHT22;4700;48.822;9.270;2023-07-13T10:48:04;34.00;99.90
9323;DHT22;4700;48.822;9.270;2023-07-13T10:50:53;33.60;99.90
9323;DHT22;4700;48.822;9.270;2023-07-13T10:53:43;32.70;99.90
9323;DHT22;4700;48.822;9.270;2023-07-13T10:56:30;32.20;99.90
9323;DHT22;4700;48.822;9.270;2023-07-13T10:59:18;31.10;99.90
9323;DHT22;4700;48.822;9.270;2023-07-13T11:02:13;30.10;99.90
9323;DHT22;4700;48.822;9.270;2023-07-13T11:05:17;29.10;99.90
9323;DHT22;4700;48.822;9.270;2023-07-13T11:08:14;28.60;99.90
9323;DHT22;4700;48.822;9.270;2023-07-13T11:11:04;28.10;99.90
9323;DHT22;4700;48.822;9.270;2023-07-13T11:14:35;27.70;99.90
9323;DHT22;4700;48.822;9.270;2023-07-13T11:17:48;27.40;99.90
9323;DHT22;4700;48.822;9.270;2023-07-13T11:20:37;27.20;99.90
9323;DHT22;4700;48.822;9.270;2023-07-13T11:23:29;27.40;99.90
9323;DHT22;4700;48.822;9.270;2023-07-13T11:26:42;27.60;99.90
9323;DHT22;4700;48.822;9.270;2023-07-13T11:29:45;27.50;99.90
9323;DHT22;4700;48.822;9.270;2023-07-13T11:32:31;27.50;99.90
9323;DHT22;4700;48.822;9.270;2023-07-13T11:35:23;27.70;99.90
9323;DHT22;4700;48.822;9.270;2023-07-13T11:38:15;27.70;99.90
9323;DHT22;4700;48.822;9.270;2023-07-13T11:41:10;27.80;99.90
9323;DHT22;4700;48.822;9.270;2023-07-13T11:44:10;27.90;99.90
9323;DHT22;4700;48.822;9.270;2023-07-13T11:46:58;27.90;99.90
9323;DHT22;4700;48.822;9.270;2023-07-13T11:49:49;27.30;99.90
9323;DHT22;4700;48.822;9.270;2023-07-13T11:52:37;27.50;99.90
9323;DHT22;4700;48.822;9.270;2023-07-13T11:55:23;28.10;99.90
9323;DHT22;4700;48.822;9.270;2023-07-13T11:58:12;28.10;99.90
9323;DHT22;4700;48.822;9.270;2023-07-13T12:01:16;28.10;99.90
9323;DHT22;4700;48.822;9.270;2023-07-13T12:04:27;27.70;99.90
9323;DHT22;4700;48.822;9.270;2023-07-13T12:07:18;27.70;99.90
9323;DHT22;4700;48.822;9.270;2023-07-13T12:10:17;27.80;99.90
9323;DHT22;4700;48.822;9.270;2023-07-13T12:13:04;27.80;99.90
9323;DHT22;4700;48.822;9.270;2023-07-13T12:15:51;27.50;99.90
9323;DHT22;4700;48.822;9.270;2023-07-13T12:18:40;27.60;99.90
9323;DHT22;4700;48.822;9.270;2023-07-13T12:21:32;27.70;99.90
9323;DHT22;4700;48.822;9.270;2023-07-13T12:24:20;27.80;99.90
9323;DHT22;4700;48.822;9.270;2023-07-13T12:27:19;27.40;99.90
9323;DHT22;4700;48.822;9.270;2023-07-13T12:30:24;27.30;99.90
9323;DHT22;4700;48.822;9.270;2023-07-13T12:33:12;27.00;99.90
9323;DHT22;4700;48.822;9.270;2023-07-13T12:36:03;26.60;99.90
9323;DHT22;4700;48.822;9.270;2023-07-13T12:38:49;26.60;99.90
9323;DHT22;4700;48.822;9.270;2023-07-13T12:41:35;26.60;99.90
9323;DHT22;4700;48.822;9.270;2023-07-13T12:44:26;27.10;99.90
9323;DHT22;4700;48.822;9.270;2023-07-13T12:47:16;27.20;99.90
9323;DHT22;4700;48.822;9.270;2023-07-13T12:50:04;27.60;99.90
9323;DHT22;4700;48.822;9.270;2023-07-13T12:52:54;27.50;99.90
9323;DHT22;4700;48.822;9.270;2023-07-13T12:55:44;26.90;99.90
9323;DHT22;4700;48.822;9.270;2023-07-13T12:58:36;26.80;99.90
9323;DHT22;4700;48.822;9.270;2023-07-13T13:01:22;26.90;99.90
9323;DHT22;4700;48.822;9.270;2023-07-13T13:04:11;27.20;99.90
9323;DHT22;4700;48.822;9.270;2023-07-13T13:07:03;27.50;99.90
9323;DHT22;4700;48.822;9.270;2023-07-13T13:09:51;28.80;99.90
9323;DHT22;4700;48.822;9.270;2023-07-13T13:12:39;27.80;99.90
9323;DHT22;4700;48.822;9.270;2023-07-13T13:15:26;27.70;99.90
9323;DHT22;4700;48.822;9.270;2023-07-13T13:18:16;27.80;99.90
9323;DHT22;4700;48.822;9.270;2023-07-13T13:21:02;28.00;99.90
9323;DHT22;4700;48.822;9.270;2023-07-13T13:23:48;27.90;99.90
9323;DHT22;4700;48.822;9.270;2023-07-13T13:29:25;27.70;99.90
9323;DHT22;4700;48.822;9.270;2023-07-13T13:32:12;27.30;99.90
9323;DHT22;4700;48.822;9.270;2023-07-13T13:34:58;27.30;99.90
9323;DHT22;4700;48.822;9.270;2023-07-13T13:37:48;27.40;99.90
9323;DHT22;4700;48.822;9.270;2023-07-13T13:40:35;28.00;99.90
9323;DHT22;4700;48.822;9.270;2023-07-13T13:45:50;27.80;99.90
9323;DHT22;4700;48.822;9.270;2023-07-13T13:48:37;27.80;99.90
9323;DHT22;4700;48.822;9.270;2023-07-13T13:51:23;27.60;99.90
9323;DHT22;4700;48.822;9.270;2023-07-13T13:54:12;27.60;99.90
9323;DHT22;4700;48.822;9.270;2023-07-13T13:56:58;27.70;99.90
9323;DHT22;4700;48.822;9.270;2023-07-13T13:59:45;27.90;99.90
9323;DHT22;4700;48.822;9.270;2023-07-13T14:02:32;27.70;99.90
9323;DHT22;4700;48.822;9.270;2023-07-13T14:05:22;27.70;99.90
9323;DHT22;4700;48.822;9.270;2023-07-13T14:08:13;27.40;99.90
9323;DHT22;4700;48.822;9.270;2023-07-13T14:11:01;27.00;99.90
9323;DHT22;4700;48.822;9.270;2023-07-13T14:13:48;26.60;99.90
9323;DHT22;4700;48.822;9.270;2023-07-13T14:16:36;26.60;99.90
9323;DHT22;4700;48.822;9.270;2023-07-13T14:19:23;26.60;99.90
9323;DHT22;4700;48.822;9.270;2023-07-13T14:22:09;26.80;99.90
9323;DHT22;4700;48.822;9.270;2023-07-13T14:24:55;27.00;99.90
9323;DHT22;4700;48.822;9.270;2023-07-13T14:27:44;27.20;99.90
9323;DHT22;4700;48.822;9.270;2023-07-13T14:30:30;27.00;99.90
9323;DHT22;4700;48.822;9.270;2023-07-13T14:33:17;26.90;99.90
9323;DHT22;4700;48.822;9.270;2023-07-13T14:36:09;26.90;99.90
9323;DHT22;4700;48.822;9.270;2023-07-13T14:39:10;26.90;99.90
9323;DHT22;4700;48.822;9.270;2023-07-13T14:41:57;27.00;99.90
9323;DHT22;4700;48.822;9.270;2023-07-13T14:44:45;27.30;99.90
9323;DHT22;4700;48.822;9.270;2023-07-13T14:47:32;27.30;99.90
9323;DHT22;4700;48.822;9.270;2023-07-13T14:50:24;27.20;99.90
9323;DHT22;4700;48.822;9.270;2023-07-13T14:53:11;27.20;99.90
9323;DHT22;4700;48.822;9.270;2023-07-13T14:55:56;27.00;99.90
9323;DHT22;4700;48.822;9.270;2023-07-13T14:58:44;27.10;99.90
9323;DHT22;4700;48.822;9.270;2023-07-13T15:01:31;27.20;99.90
9323;DHT22;4700;48.822;9.270;2023-07-13T15:04:20;27.20;99.90
9323;DHT22;4700;48.822;9.270;2023-07-13T15:07:10;27.10;99.90
9323;DHT22;4700;48.822;9.270;2023-07-13T15:09:57;26.80;99.90
9323;DHT22;4700;48.822;9.270;2023-07-13T15:12:43;26.60;99.90
9323;DHT22;4700;48.822;9.270;2023-07-13T15:15:30;26.60;99.90
9323;DHT22;4700;48.822;9.270;2023-07-13T15:18:20;26.60;99.90
9323;DHT22;4700;48.822;9.270;2023-07-13T15:21:09;26.80;99.90
9323;DHT22;4700;48.822;9.270;2023-07-13T15:23:59;27.00;99.90
9323;DHT22;4700;48.822;9.270;2023-07-13T15:26:47;27.00;99.90
9323;DHT22;4700;48.822;9.270;2023-07-13T15:29:33;27.30;99.90
9323;DHT22;4700;48.822;9.270;2023-07-13T15:32:18;27.20;99.90
9323;DHT22;4700;48.822;9.270;2023-07-13T15:35:05;27.20;99.90
9323;DHT22;4700;48.822;9.270;2023-07-13T15:37:51;27.10;99.90
9323;DHT22;4700;48.822;9.270;2023-07-13T15:40:39;27.20;99.90
9323;DHT22;4700;48.822;9.270;2023-07-13T15:43:26;27.10;99.90
9323;DHT22;4700;48.822;9.270;2023-07-13T15:46:10;26.90;99.90
9323;DHT22;4700;48.822;9.270;2023-07-13T15:48:57;26.80;99.90
9323;DHT22;4700;48.822;9.270;2023-07-13T15:51:43;26.50;99.90
9323;DHT22;4700;48.822;9.270;2023-07-13T15:54:29;26.50;99.90
9323;DHT22;4700;48.822;9.270;2023-07-13T15:57:17;26.20;99.90
9323;DHT22;4700;48.822;9.270;2023-07-13T16:00:05;26.30;99.90
9323;DHT22;4700;48.822;9.270;2023-07-13T16:02:58;26.30;99.90
9323;DHT22;4700;48.822;9.270;2023-07-13T16:05:44;26.20;99.90
9323;DHT22;4700;48.822;9.270;2023-07-13T16:08:31;26.50;99.90
9323;DHT22;4700;48.822;9.270;2023-07-13T16:11:21;26.20;99.90
9323;DHT22;4700;48.822;9.270;2023-07-13T16:14:12;26.20;99.90
9323;DHT22;4700;48.822;9.270;2023-07-13T16:16:59;26.20;99.90
9323;DHT22;4700;48.822;9.270;2023-07-13T16:19:44;26.30;99.90
9323;DHT22;4700;48.822;9.270;2023-07-13T16:22:30;26.40;99.90
9323;DHT22;4700;48.822;9.270;2023-07-13T16:25:20;26.20;99.90
9323;DHT22;4700;48.822;9.270;2023-07-13T16:28:09;26.10;99.90
9323;DHT22;4700;48.822;9.270;2023-07-13T16:30:57;25.90;99.90
9323;DHT22;4700;48.822;9.270;2023-07-13T16:33:45;25.90;99.90
9323;DHT22;4700;48.822;9.270;2023-07-13T16:36:30;26.10;99.90
9323;DHT22;4700;48.822;9.270;2023-07-13T16:39:17;26.20;99.90
9323;DHT22;4700;48.822;9.270;2023-07-13T16:42:04;26.20;99.90
9323;DHT22;4700;48.822;9.270;2023-07-13T16:44:49;26.30;99.90
9323;DHT22;4700;48.822;9.270;2023-07-13T16:47:37;26.40;99.90
9323;DHT22;4700;48.822;9.270;2023-07-13T16:50:29;26.30;99.90
9323;DHT22;4700;48.822;9.270;2023-07-13T16:53:19;26.40;99.90
9323;DHT22;4700;48.822;9.270;2023-07-13T16:56:08;26.30;99.90
9323;DHT22;4700;48.822;9.270;2023-07-13T16:58:56;26.00;99.90
9323;DHT22;4700;48.822;9.270;2023-07-13T17:01:42;25.90;99.90
9323;DHT22;4700;48.822;9.270;2023-07-13T17:04:29;25.90;99.90
9323;DHT22;4700;48.822;9.270;2023-07-13T17:07:14;25.70;99.90
9323;DHT22;4700;48.822;9.270;2023-07-13T17:10:02;25.70;99.90
9323;DHT22;4700;48.822;9.270;2023-07-13T17:12:48;25.70;99.90
9323;DHT22;4700;48.822;9.270;2023-07-13T17:15:35;25.70;99.90
9323;DHT22;4700;48.822;9.270;2023-07-13T17:18:21;25.80;99.90
9323;DHT22;4700;48.822;9.270;2023-07-13T17:21:14;25.70;99.90
9323;DHT22;4700;48.822;9.270;2023-07-13T17:24:00;25.40;99.90
9323;DHT22;4700;48.822;9.270;2023-07-13T17:26:47;25.40;99.90
9323;DHT22;4700;48.822;9.270;2023-07-13T17:29:34;25.30;99.90
9323;DHT22;4700;48.822;9.270;2023-07-13T17:32:21;25.20;99.90
9323;DHT22;4700;48.822;9.270;2023-07-13T17:35:17;26.10;99.90
9323;DHT22;4700;48.822;9.270;2023-07-13T17:38:05;25.00;99.90
9323;DHT22;4700;48.822;9.270;2023-07-13T17:40:51;25.00;99.90
9323;DHT22;4700;48.822;9.270;2023-07-13T17:43:37;25.00;99.90
9323;DHT22;4700;48.822;9.270;2023-07-13T17:46:28;24.90;99.90
9323;DHT22;4700;48.822;9.270;2023-07-13T17:49:17;24.80;99.90
9323;DHT22;4700;48.822;9.270;2023-07-13T17:52:08;24.90;99.90
9323;DHT22;4700;48.822;9.270;2023-07-13T17:54:55;24.90;99.90
9323;DHT22;4700;48.822;9.270;2023-07-13T17:57:44;25.00;99.90
9323;DHT22;4700;48.822;9.270;2023-07-13T18:00:34;25.10;99.90
9323;DHT22;4700;48.822;9.270;2023-07-13T18:03:23;25.20;99.90
9323;DHT22;4700;48.822;9.270;2023-07-13T18:06:15;25.10;99.90
9323;DHT22;4700;48.822;9.270;2023-07-13T18:09:12;24.90;99.90
9323;DHT22;4700;48.822;9.270;2023-07-13T18:12:01;24.80;99.90
9323;DHT22;4700;48.822;9.270;2023-07-13T18:14:46;24.60;99.90
9323;DHT22;4700;48.822;9.270;2023-07-13T18:17:32;24.40;99.90
9323;DHT22;4700;48.822;9.270;2023-07-13T18:20:19;24.30;99.90
9323;DHT22;4700;48.822;9.270;2023-07-13T18:23:14;24.20;99.90
9323;DHT22;4700;48.822;9.270;2023-07-13T18:26:00;24.10;99.90
9323;DHT22;4700;48.822;9.270;2023-07-13T18:28:47;24.00;99.90
9323;DHT22;4700;48.822;9.270;2023-07-13T18:31:35;23.90;99.90
9323;DHT22;4700;48.822;9.270;2023-07-13T18:34:23;23.90;99.90
9323;DHT22;4700;48.822;9.270;2023-07-13T18:37:15;23.80;99.90
9323;DHT22;4700;48.822;9.270;2023-07-13T18:40:08;23.80;99.90
9323;DHT22;4700;48.822;9.270;2023-07-13T18:43:02;23.70;99.90